sensor_id;sensor_type;location;lat;lon;timestamp;temperature;humidity
71436;SHT31;59251;51.326;12.370;2024-01-30T00:00:32;5.12;76.78
71436;SHT31;59251;51.326;12.370;2024-01-30T00:02:59;5.06;76.79
71436;SHT31;59251;51.326;12.370;2024-01-30T00:05:27;5.05;76.83
71436;SHT31;59251;51.326;12.370;2024-01-30T00:07:54;5.06;76.72
71436;SHT31;59251;51.326;12.370;2024-01-30T00:10:21;5.06;76.65
71436;SHT31;59251;51.326;12.370;2024-01-30T00:12:47;4.99;76.94
71436;SHT31;59251;51.326;12.370;2024-01-30T00:15:14;5.03;76.97
71436;SHT31;59251;51.326;12.370;2024-01-30T00:17:41;5.09;76.97
71436;SHT31;59251;51.326;12.370;2024-01-30T00:20:08;5.02;76.99
71436;SHT31;59251;51.326;12.370;2024-01-30T00:22:37;4.96;76.96
71436;SHT31;59251;51.326;12.370;2024-01-30T00:25:04;5.06;76.67
71436;SHT31;59251;51.326;12.370;2024-01-30T00:27:31;5.30;75.95
71436;SHT31;59251;51.326;12.370;2024-01-30T00:29:58;5.24;75.93
71436;SHT31;59251;51.326;12.370;2024-01-30T00:32:25;5.29;75.84
71436;SHT31;59251;51.326;12.370;2024-01-30T00:34:51;5.26;75.71
71436;SHT31;59251;51.326;12.370;2024-01-30T00:37:18;5.31;75.48
71436;SHT31;59251;51.326;12.370;2024-01-30T00:39:46;5.29;75.63
71436;SHT31;59251;51.326;12.370;2024-01-30T00:42:13;5.27;75.59
71436;SHT31;59251;51.326;12.370;2024-01-30T00:44:40;5.34;75.45
71436;SHT31;59251;51.326;12.370;2024-01-30T00:47:07;5.34;74.99
71436;SHT31;59251;51.326;12.370;2024-01-30T00:49:34;5.41;74.70
71436;SHT31;59251;51.326;12.370;2024-01-30T00:52:00;5.55;74.38
71436;SHT31;59251;51.326;12.370;2024-01-30T00:54:27;5.47;74.38
71436;SHT31;59251;51.326;12.370;2024-01-30T00:56:55;5.52;74.09
71436;SHT31;59251;51.326;12.370;2024-01-30T00:59:22;5.50;73.87
71436;SHT31;59251;51.326;12.370;2024-01-30T01:01:49;5.61;73.74
71436;SHT31;59251;51.326;12.370;2024-01-30T01:04:15;5.62;73.38
71436;SHT31;59251;51.326;12.370;2024-01-30T01:06:43;5.60;73.39
71436;SHT31;59251;51.326;12.370;2024-01-30T01:09:10;5.57;73.24
71436;SHT31;59251;51.326;12.370;2024-01-30T01:11:37;5.65;73.00
71436;SHT31;59251;51.326;12.370;2024-01-30T01:14:05;5.62;72.72
71436;SHT31;59251;51.326;12.370;2024-01-30T01:16:33;5.70;72.71
71436;SHT31;59251;51.326;12.370;2024-01-30T01:19:00;5.75;72.32
71436;SHT31;59251;51.326;12.370;2024-01-30T01:21:26;5.74;72.36
71436;SHT31;59251;51.326;12.370;2024-01-30T01:23:53;5.78;72.11
71436;SHT31;59251;51.326;12.370;2024-01-30T01:26:20;5.94;71.72
71436;SHT31;59251;51.326;12.370;2024-01-30T01:28:47;5.89;71.72
71436;SHT31;59251;51.326;12.370;2024-01-30T01:31:15;5.87;71.74
71436;SHT31;59251;51.326;12.370;2024-01-30T01:33:43;5.88;71.55
71436;SHT31;59251;51.326;12.370;2024-01-30T01:36:09;5.91;71.53
71436;SHT31;59251;51.326;12.370;2024-01-30T01:38:36;5.81;71.71
71436;SHT31;59251;51.326;12.370;2024-01-30T01:41:03;5.81;71.71
71436;SHT31;59251;51.326;12.370;2024-01-30T01:43:30;5.78;71.64
71436;SHT31;59251;51.326;12.370;2024-01-30T01:45:57;5.85;71.67
71436;SHT31;59251;51.326;12.370;2024-01-30T01:48:24;5.88;71.70
71436;SHT31;59251;51.326;12.370;2024-01-30T01:50:51;5.78;71.81
71436;SHT31;59251;51.326;12.370;2024-01-30T01:53:19;5.77;71.89
71436;SHT31;59251;51.326;12.370;2024-01-30T01:55:46;5.74;71.95
71436;SHT31;59251;51.326;12.370;2024-01-30T01:58:13;5.74;71.96
71436;SHT31;59251;51.326;12.370;2024-01-30T02:00:40;5.72;72.02
71436;SHT31;59251;51.326;12.370;2024-01-30T02:03:10;5.81;72.02
71436;SHT31;59251;51.326;12.370;2024-01-30T02:05:39;5.77;72.31
71436;SHT31;59251;51.326;12.370;2024-01-30T02:08:08;5.70;72.37
71436;SHT31;59251;51.326;12.370;2024-01-30T02:10:35;5.68;72.45
71436;SHT31;59251;51.326;12.370;2024-01-30T02:13:01;5.58;72.68
71436;SHT31;59251;51.326;12.370;2024-01-30T02:15:28;5.60;72.68
71436;SHT31;59251;51.326;12.370;2024-01-30T02:17:55;5.74;72.51
71436;SHT31;59251;51.326;12.370;2024-01-30T02:20:23;5.67;72.41
71436;SHT31;59251;51.326;12.370;2024-01-30T02:22:54;5.64;72.66
71436;SHT31;59251;51.326;12.370;2024-01-30T02:25:30;5.52;72.81
71436;SHT31;59251;51.326;12.370;2024-01-30T02:27:57;5.52;72.87
71436;SHT31;59251;51.326;12.370;2024-01-30T02:30:24;5.62;72.81
71436;SHT31;59251;51.326;12.370;2024-01-30T02:32:50;5.41;73.19
71436;SHT31;59251;51.326;12.370;2024-01-30T02:35:17;5.34;73.54
71436;SHT31;59251;51.326;12.370;2024-01-30T02:37:44;5.30;73.61
71436;SHT31;59251;51.326;12.370;2024-01-30T02:40:12;5.16;73.97
71436;SHT31;59251;51.326;12.370;2024-01-30T02:42:39;5.22;73.95
71436;SHT31;59251;51.326;12.370;2024-01-30T02:45:08;5.12;74.13
71436;SHT31;59251;51.326;12.370;2024-01-30T02:47:35;5.15;74.13
71436;SHT31;59251;51.326;12.370;2024-01-30T02:50:02;5.15;74.11
71436;SHT31;59251;51.326;12.370;2024-01-30T02:52:28;5.19;74.09
71436;SHT31;59251;51.326;12.370;2024-01-30T02:54:55;5.15;74.08
71436;SHT31;59251;51.326;12.370;2024-01-30T02:57:23;5.23;73.89
71436;SHT31;59251;51.326;12.370;2024-01-30T02:59:50;5.16;74.03
71436;SHT31;59251;51.326;12.370;2024-01-30T03:02:17;5.19;73.89
71436;SHT31;59251;51.326;12.370;2024-01-30T03:04:44;5.15;74.08
71436;SHT31;59251;51.326;12.370;2024-01-30T03:07:10;5.09;74.14
71436;SHT31;59251;51.326;12.370;2024-01-30T03:09:38;5.10;74.03
71436;SHT31;59251;51.326;12.370;2024-01-30T03:12:05;5.15;73.82
71436;SHT31;59251;51.326;12.370;2024-01-30T03:14:33;5.18;73.72
71436;SHT31;59251;51.326;12.370;2024-01-30T03:17:00;5.27;73.52
71436;SHT31;59251;51.326;12.370;2024-01-30T03:19:27;5.24;73.46
71436;SHT31;59251;51.326;12.370;2024-01-30T03:21:53;5.19;73.44
71436;SHT31;59251;51.326;12.370;2024-01-30T03:24:20;5.19;73.48
71436;SHT31;59251;51.326;12.370;2024-01-30T03:26:47;5.33;73.31
71436;SHT31;59251;51.326;12.370;2024-01-30T03:29:14;5.27;73.18
71436;SHT31;59251;51.326;12.370;2024-01-30T03:31:42;5.30;72.96
71436;SHT31;59251;51.326;12.370;2024-01-30T03:34:09;5.36;72.80
71436;SHT31;59251;51.326;12.370;2024-01-30T03:36:36;5.23;73.11
71436;SHT31;59251;51.326;12.370;2024-01-30T03:39:02;5.44;72.84
71436;SHT31;59251;51.326;12.370;2024-01-30T03:41:29;5.47;72.51
71436;SHT31;59251;51.326;12.370;2024-01-30T03:43:56;5.41;72.47
71436;SHT31;59251;51.326;12.370;2024-01-30T03:46:23;5.43;72.43
71436;SHT31;59251;51.326;12.370;2024-01-30T03:48:51;5.41;72.48
71436;SHT31;59251;51.326;12.370;2024-01-30T03:51:18;5.41;72.37
71436;SHT31;59251;51.326;12.370;2024-01-30T03:53:45;5.36;72.67
71436;SHT31;59251;51.326;12.370;2024-01-30T03:56:11;5.51;72.24
71436;SHT31;59251;51.326;12.370;2024-01-30T03:58:39;5.44;72.21
71436;SHT31;59251;51.326;12.370;2024-01-30T04:01:05;5.34;72.37
71436;SHT31;59251;51.326;12.370;2024-01-30T04:03:32;5.37;72.37
71436;SHT31;59251;51.326;12.370;2024-01-30T04:06:00;5.46;72.14
71436;SHT31;59251;51.326;12.370;2024-01-30T04:08:27;5.37;72.05
71436;SHT31;59251;51.326;12.370;2024-01-30T04:10:53;5.37;72.16
71436;SHT31;59251;51.326;12.370;2024-01-30T04:13:20;5.29;72.43
71436;SHT31;59251;51.326;12.370;2024-01-30T04:15:47;5.26;72.24
71436;SHT31;59251;51.326;12.370;2024-01-30T04:18:14;5.30;72.09
71436;SHT31;59251;51.326;12.370;2024-01-30T04:20:40;5.30;71.93
71436;SHT31;59251;51.326;12.370;2024-01-30T04:23:08;5.36;71.91
71436;SHT31;59251;51.326;12.370;2024-01-30T04:25:35;5.30;71.85
71436;SHT31;59251;51.326;12.370;2024-01-30T04:28:02;5.34;71.64
71436;SHT31;59251;51.326;12.370;2024-01-30T04:30:29;5.41;71.66
71436;SHT31;59251;51.326;12.370;2024-01-30T04:32:56;5.40;71.50
71436;SHT31;59251;51.326;12.370;2024-01-30T04:35:23;5.43;71.77
71436;SHT31;59251;51.326;12.370;2024-01-30T04:37:51;5.29;71.91
71436;SHT31;59251;51.326;12.370;2024-01-30T04:40:20;5.29;71.98
71436;SHT31;59251;51.326;12.370;2024-01-30T04:42:46;5.31;71.77
71436;SHT31;59251;51.326;12.370;2024-01-30T04:45:13;5.30;71.68
71436;SHT31;59251;51.326;12.370;2024-01-30T04:47:40;5.34;71.59
71436;SHT31;59251;51.326;12.370;2024-01-30T04:50:07;5.33;71.65
71436;SHT31;59251;51.326;12.370;2024-01-30T04:52:34;5.36;71.55
71436;SHT31;59251;51.326;12.370;2024-01-30T04:55:01;5.37;71.45
71436;SHT31;59251;51.326;12.370;2024-01-30T04:57:29;5.30;71.39
71436;SHT31;59251;51.326;12.370;2024-01-30T04:59:59;5.39;71.25
71436;SHT31;59251;51.326;12.370;2024-01-30T05:02:26;5.33;71.18
71436;SHT31;59251;51.326;12.370;2024-01-30T05:04:53;5.34;71.19
71436;SHT31;59251;51.326;12.370;2024-01-30T05:07:20;5.22;71.49
71436;SHT31;59251;51.326;12.370;2024-01-30T05:09:46;5.26;71.44
71436;SHT31;59251;51.326;12.370;2024-01-30T05:12:13;5.18;71.67
71436;SHT31;59251;51.326;12.370;2024-01-30T05:14:41;5.13;71.61
71436;SHT31;59251;51.326;12.370;2024-01-30T05:17:08;5.20;71.33
71436;SHT31;59251;51.326;12.370;2024-01-30T05:19:38;5.13;71.60
71436;SHT31;59251;51.326;12.370;2024-01-30T05:22:04;5.08;71.49
71436;SHT31;59251;51.326;12.370;2024-01-30T05:24:31;5.19;71.50
71436;SHT31;59251;51.326;12.370;2024-01-30T05:26:58;5.19;71.34
71436;SHT31;59251;51.326;12.370;2024-01-30T05:29:25;5.18;71.09
71436;SHT31;59251;51.326;12.370;2024-01-30T05:31:53;5.19;71.03
71436;SHT31;59251;51.326;12.370;2024-01-30T05:34:20;5.18;71.05
71436;SHT31;59251;51.326;12.370;2024-01-30T05:36:46;5.16;70.89
71436;SHT31;59251;51.326;12.370;2024-01-30T05:39:13;5.15;70.91
71436;SHT31;59251;51.326;12.370;2024-01-30T05:41:40;5.12;70.89
71436;SHT31;59251;51.326;12.370;2024-01-30T05:44:07;5.29;70.43
71436;SHT31;59251;51.326;12.370;2024-01-30T05:46:35;5.20;70.43
71436;SHT31;59251;51.326;12.370;2024-01-30T05:49:03;5.30;70.21
71436;SHT31;59251;51.326;12.370;2024-01-30T05:51:31;5.36;69.92
71436;SHT31;59251;51.326;12.370;2024-01-30T05:53:58;5.36;70.16
71436;SHT31;59251;51.326;12.370;2024-01-30T05:56:24;5.37;69.91
71436;SHT31;59251;51.326;12.370;2024-01-30T05:58:51;5.40;69.61
71436;SHT31;59251;51.326;12.370;2024-01-30T06:01:18;5.43;69.51
71436;SHT31;59251;51.326;12.370;2024-01-30T06:03:45;5.43;69.86
71436;SHT31;59251;51.326;12.370;2024-01-30T06:06:13;5.33;69.90
71436;SHT31;59251;51.326;12.370;2024-01-30T06:08:40;5.29;70.01
71436;SHT31;59251;51.326;12.370;2024-01-30T06:11:10;5.29;70.03
71436;SHT31;59251;51.326;12.370;2024-01-30T06:13:36;5.34;70.09
71436;SHT31;59251;51.326;12.370;2024-01-30T06:16:04;5.31;69.95
71436;SHT31;59251;51.326;12.370;2024-01-30T06:18:31;5.20;70.37
71436;SHT31;59251;51.326;12.370;2024-01-30T06:20:58;5.20;70.26
71436;SHT31;59251;51.326;12.370;2024-01-30T06:23:26;5.27;70.52
71436;SHT31;59251;51.326;12.370;2024-01-30T06:25:53;5.30;69.99
71436;SHT31;59251;51.326;12.370;2024-01-30T06:28:19;5.18;70.41
71436;SHT31;59251;51.326;12.370;2024-01-30T06:30:47;5.30;70.02
71436;SHT31;59251;51.326;12.370;2024-01-30T06:33:14;5.26;69.71
71436;SHT31;59251;51.326;12.370;2024-01-30T06:35:41;5.31;69.63
71436;SHT31;59251;51.326;12.370;2024-01-30T06:38:07;5.30;69.61
71436;SHT31;59251;51.326;12.370;2024-01-30T06:40:36;5.27;69.83
71436;SHT31;59251;51.326;12.370;2024-01-30T06:43:04;5.24;69.89
71436;SHT31;59251;51.326;12.370;2024-01-30T06:45:31;5.29;69.89
71436;SHT31;59251;51.326;12.370;2024-01-30T06:47:58;5.52;70.27
71436;SHT31;59251;51.326;12.370;2024-01-30T06:50:24;5.65;69.89
71436;SHT31;59251;51.326;12.370;2024-01-30T06:52:51;5.97;70.42
71436;SHT31;59251;51.326;12.370;2024-01-30T06:55:18;5.61;68.82
71436;SHT31;59251;51.326;12.370;2024-01-30T06:57:46;5.58;69.49
71436;SHT31;59251;51.326;12.370;2024-01-30T07:00:14;5.52;69.36
71436;SHT31;59251;51.326;12.370;2024-01-30T07:02:41;5.36;69.39
71436;SHT31;59251;51.326;12.370;2024-01-30T07:05:08;5.33;69.57
71436;SHT31;59251;51.326;12.370;2024-01-30T07:07:35;5.39;69.61
71436;SHT31;59251;51.326;12.370;2024-01-30T07:10:02;5.33;69.59
71436;SHT31;59251;51.326;12.370;2024-01-30T07:12:30;5.36;69.47
71436;SHT31;59251;51.326;12.370;2024-01-30T07:14:58;5.36;69.30
71436;SHT31;59251;51.326;12.370;2024-01-30T07:17:25;5.47;69.04
71436;SHT31;59251;51.326;12.370;2024-01-30T07:19:52;5.55;68.80
71436;SHT31;59251;51.326;12.370;2024-01-30T07:22:19;5.54;68.81
71436;SHT31;59251;51.326;12.370;2024-01-30T07:24:46;5.61;68.78
71436;SHT31;59251;51.326;12.370;2024-01-30T07:27:14;5.61;68.67
71436;SHT31;59251;51.326;12.370;2024-01-30T07:29:43;5.67;68.55
71436;SHT31;59251;51.326;12.370;2024-01-30T07:32:11;5.68;68.57
71436;SHT31;59251;51.326;12.370;2024-01-30T07:34:37;5.82;68.34
71436;SHT31;59251;51.326;12.370;2024-01-30T07:37:04;5.77;68.39
71436;SHT31;59251;51.326;12.370;2024-01-30T07:39:33;5.75;68.34
71436;SHT31;59251;51.326;12.370;2024-01-30T07:42:01;5.79;68.26
71436;SHT31;59251;51.326;12.370;2024-01-30T07:44:28;5.85;68.14
71436;SHT31;59251;51.326;12.370;2024-01-30T07:46:54;5.94;68.03
71436;SHT31;59251;51.326;12.370;2024-01-30T07:49:25;6.03;67.72
71436;SHT31;59251;51.326;12.370;2024-01-30T07:51:51;6.05;67.80
71436;SHT31;59251;51.326;12.370;2024-01-30T07:54:18;6.03;67.59
71436;SHT31;59251;51.326;12.370;2024-01-30T07:56:45;6.09;67.55
71436;SHT31;59251;51.326;12.370;2024-01-30T07:59:11;6.06;67.45
71436;SHT31;59251;51.326;12.370;2024-01-30T08:01:38;6.13;67.43
71436;SHT31;59251;51.326;12.370;2024-01-30T08:04:05;6.26;67.30
71436;SHT31;59251;51.326;12.370;2024-01-30T08:06:33;6.32;66.87
71436;SHT31;59251;51.326;12.370;2024-01-30T08:09:00;6.38;66.75
71436;SHT31;59251;51.326;12.370;2024-01-30T08:11:26;6.43;66.66
71436;SHT31;59251;51.326;12.370;2024-01-30T08:13:55;6.63;66.58
71436;SHT31;59251;51.326;12.370;2024-01-30T08:16:21;6.58;66.53
71436;SHT31;59251;51.326;12.370;2024-01-30T08:18:48;6.63;66.49
71436;SHT31;59251;51.326;12.370;2024-01-30T08:21:15;6.58;66.49
71436;SHT31;59251;51.326;12.370;2024-01-30T08:23:43;6.64;66.52
71436;SHT31;59251;51.326;12.370;2024-01-30T08:26:10;6.74;66.35
71436;SHT31;59251;51.326;12.370;2024-01-30T08:28:37;6.74;66.25
71436;SHT31;59251;51.326;12.370;2024-01-30T08:31:04;6.75;66.16
71436;SHT31;59251;51.326;12.370;2024-01-30T08:33:30;6.81;66.03
71436;SHT31;59251;51.326;12.370;2024-01-30T08:35:57;6.91;65.78
71436;SHT31;59251;51.326;12.370;2024-01-30T08:38:24;7.01;65.82
71436;SHT31;59251;51.326;12.370;2024-01-30T08:40:52;7.05;65.79
71436;SHT31;59251;51.326;12.370;2024-01-30T08:43:19;7.04;65.87
71436;SHT31;59251;51.326;12.370;2024-01-30T08:45:45;7.06;65.84
71436;SHT31;59251;51.326;12.370;2024-01-30T08:48:12;7.29;65.80
71436;SHT31;59251;51.326;12.370;2024-01-30T08:50:39;7.34;65.39
71436;SHT31;59251;51.326;12.370;2024-01-30T08:53:05;7.37;65.65
71436;SHT31;59251;51.326;12.370;2024-01-30T08:55:32;7.39;65.72
71436;SHT31;59251;51.326;12.370;2024-01-30T08:58:00;7.50;65.55
71436;SHT31;59251;51.326;12.370;2024-01-30T09:00:29;7.60;65.39
71436;SHT31;59251;51.326;12.370;2024-01-30T09:02:55;7.60;65.38
71436;SHT31;59251;51.326;12.370;2024-01-30T09:05:22;7.73;65.24
71436;SHT31;59251;51.326;12.370;2024-01-30T09:07:49;7.78;65.21
71436;SHT31;59251;51.326;12.370;2024-01-30T09:10:16;7.82;64.97
71436;SHT31;59251;51.326;12.370;2024-01-30T09:12:43;7.91;65.13
71436;SHT31;59251;51.326;12.370;2024-01-30T09:15:11;7.90;65.03
71436;SHT31;59251;51.326;12.370;2024-01-30T09:17:38;7.98;65.04
71436;SHT31;59251;51.326;12.370;2024-01-30T09:20:06;8.12;64.98
71436;SHT31;59251;51.326;12.370;2024-01-30T09:22:34;8.24;64.90
71436;SHT31;59251;51.326;12.370;2024-01-30T09:25:01;8.29;64.98
71436;SHT31;59251;51.326;12.370;2024-01-30T09:27:28;8.36;64.92
71436;SHT31;59251;51.326;12.370;2024-01-30T09:29:54;8.28;64.94
71436;SHT31;59251;51.326;12.370;2024-01-30T09:32:24;8.52;64.81
71436;SHT31;59251;51.326;12.370;2024-01-30T09:34:52;8.53;64.87
71436;SHT31;59251;51.326;12.370;2024-01-30T09:37:18;8.59;64.87
71436;SHT31;59251;51.326;12.370;2024-01-30T09:39:46;8.76;64.72
71436;SHT31;59251;51.326;12.370;2024-01-30T09:42:28;8.70;64.94
71436;SHT31;59251;51.326;12.370;2024-01-30T09:44:58;8.70;65.06
71436;SHT31;59251;51.326;12.370;2024-01-30T09:47:26;8.87;64.87
71436;SHT31;59251;51.326;12.370;2024-01-30T09:49:53;8.94;64.69
71436;SHT31;59251;51.326;12.370;2024-01-30T09:52:19;8.94;64.83
71436;SHT31;59251;51.326;12.370;2024-01-30T09:54:48;9.07;64.63
71436;SHT31;59251;51.326;12.370;2024-01-30T09:57:15;9.21;64.44
71436;SHT31;59251;51.326;12.370;2024-01-30T09:59:42;9.10;64.40
71436;SHT31;59251;51.326;12.370;2024-01-30T10:02:09;9.38;64.20
71436;SHT31;59251;51.326;12.370;2024-01-30T10:04:38;9.25;64.24
71436;SHT31;59251;51.326;12.370;2024-01-30T10:07:05;9.65;63.81
71436;SHT31;59251;51.326;12.370;2024-01-30T10:09:32;9.74;63.57
71436;SHT31;59251;51.326;12.370;2024-01-30T10:12:01;9.63;63.71
71436;SHT31;59251;51.326;12.370;2024-01-30T10:14:29;9.79;63.76
71436;SHT31;59251;51.326;12.370;2024-01-30T10:16:57;9.69;63.88
71436;SHT31;59251;51.326;12.370;2024-01-30T10:19:24;9.89;63.73
71436;SHT31;59251;51.326;12.370;2024-01-30T10:21:52;9.84;64.01
71436;SHT31;59251;51.326;12.370;2024-01-30T10:24:24;9.95;64.03
71436;SHT31;59251;51.326;12.370;2024-01-30T10:26:50;9.84;64.04
71436;SHT31;59251;51.326;12.370;2024-01-30T10:29:17;10.01;64.18
71436;SHT31;59251;51.326;12.370;2024-01-30T10:31:44;9.95;64.22
71436;SHT31;59251;51.326;12.370;2024-01-30T10:34:11;10.01;64.35
71436;SHT31;59251;51.326;12.370;2024-01-30T10:36:40;9.95;64.75
71436;SHT31;59251;51.326;12.370;2024-01-30T10:39:08;9.93;64.66
71436;SHT31;59251;51.326;12.370;2024-01-30T10:41:40;10.07;64.62
71436;SHT31;59251;51.326;12.370;2024-01-30T10:44:09;10.15;64.59
71436;SHT31;59251;51.326;12.370;2024-01-30T10:46:38;10.41;64.08
71436;SHT31;59251;51.326;12.370;2024-01-30T10:49:05;10.42;64.19
71436;SHT31;59251;51.326;12.370;2024-01-30T10:51:32;10.27;64.63
71436;SHT31;59251;51.326;12.370;2024-01-30T10:54:00;10.51;64.22
71436;SHT31;59251;51.326;12.370;2024-01-30T10:56:29;10.52;64.30
71436;SHT31;59251;51.326;12.370;2024-01-30T10:58:57;10.52;64.43
71436;SHT31;59251;51.326;12.370;2024-01-30T11:01:24;10.56;64.49
71436;SHT31;59251;51.326;12.370;2024-01-30T11:03:52;10.76;64.17
71436;SHT31;59251;51.326;12.370;2024-01-30T11:06:22;10.73;64.12
71436;SHT31;59251;51.326;12.370;2024-01-30T11:09:00;11.00;63.69
71436;SHT31;59251;51.326;12.370;2024-01-30T11:11:29;11.01;63.88
71436;SHT31;59251;51.326;12.370;2024-01-30T11:14:00;10.97;63.83
71436;SHT31;59251;51.326;12.370;2024-01-30T11:16:31;11.06;64.03
71436;SHT31;59251;51.326;12.370;2024-01-30T11:19:00;10.83;64.42
71436;SHT31;59251;51.326;12.370;2024-01-30T11:21:28;10.82;64.43
71436;SHT31;59251;51.326;12.370;2024-01-30T11:23:55;10.86;64.48
71436;SHT31;59251;51.326;12.370;2024-01-30T11:26:27;11.20;64.03
71436;SHT31;59251;51.326;12.370;2024-01-30T11:28:56;11.28;63.81
71436;SHT31;59251;51.326;12.370;2024-01-30T11:31:23;11.20;64.12
71436;SHT31;59251;51.326;12.370;2024-01-30T11:33:52;11.09;64.42
71436;SHT31;59251;51.326;12.370;2024-01-30T11:36:23;11.00;64.57
71436;SHT31;59251;51.326;12.370;2024-01-30T11:38:51;11.26;64.64
71436;SHT31;59251;51.326;12.370;2024-01-30T11:41:18;11.24;64.49
71436;SHT31;59251;51.326;12.370;2024-01-30T11:43:51;11.39;64.36
71436;SHT31;59251;51.326;12.370;2024-01-30T11:46:19;11.45;64.37
71436;SHT31;59251;51.326;12.370;2024-01-30T11:48:46;11.48;64.45
71436;SHT31;59251;51.326;12.370;2024-01-30T11:51:13;11.57;64.39
71436;SHT31;59251;51.326;12.370;2024-01-30T11:53:41;11.61;64.60
71436;SHT31;59251;51.326;12.370;2024-01-30T11:56:08;11.44;64.83
71436;SHT31;59251;51.326;12.370;2024-01-30T11:58:35;11.55;65.05
71436;SHT31;59251;51.326;12.370;2024-01-30T12:01:01;11.90;64.59
71436;SHT31;59251;51.326;12.370;2024-01-30T12:03:29;12.02;64.43
71436;SHT31;59251;51.326;12.370;2024-01-30T12:05:57;12.06;64.40
71436;SHT31;59251;51.326;12.370;2024-01-30T12:08:24;12.29;64.18
71436;SHT31;59251;51.326;12.370;2024-01-30T12:10:55;12.34;64.28
71436;SHT31;59251;51.326;12.370;2024-01-30T12:13:23;12.53;64.13
71436;SHT31;59251;51.326;12.370;2024-01-30T12:15:50;12.41;64.62
71436;SHT31;59251;51.326;12.370;2024-01-30T12:18:18;12.74;64.34
71436;SHT31;59251;51.326;12.370;2024-01-30T12:20:56;12.95;64.03
71436;SHT31;59251;51.326;12.370;2024-01-30T12:23:24;12.81;64.30
71436;SHT31;59251;51.326;12.370;2024-01-30T12:25:51;12.95;64.38
71436;SHT31;59251;51.326;12.370;2024-01-30T12:28:19;12.91;64.88
71436;SHT31;59251;51.326;12.370;2024-01-30T12:30:46;12.87;64.83
71436;SHT31;59251;51.326;12.370;2024-01-30T12:33:16;13.05;64.94
71436;SHT31;59251;51.326;12.370;2024-01-30T12:35:47;13.01;65.10
71436;SHT31;59251;51.326;12.370;2024-01-30T12:38:13;13.03;64.83
71436;SHT31;59251;51.326;12.370;2024-01-30T12:40:40;13.40;64.51
71436;SHT31;59251;51.326;12.370;2024-01-30T12:43:07;13.53;64.39
71436;SHT31;59251;51.326;12.370;2024-01-30T12:45:35;13.47;64.52
71436;SHT31;59251;51.326;12.370;2024-01-30T12:48:02;13.56;64.56
71436;SHT31;59251;51.326;12.370;2024-01-30T12:50:29;13.74;64.20
71436;SHT31;59251;51.326;12.370;2024-01-30T12:52:57;13.82;63.84
71436;SHT31;59251;51.326;12.370;2024-01-30T12:55:24;13.64;64.24
71436;SHT31;59251;51.326;12.370;2024-01-30T12:57:53;14.02;63.86
71436;SHT31;59251;51.326;12.370;2024-01-30T13:00:21;13.98;63.95
71436;SHT31;59251;51.326;12.370;2024-01-30T13:02:48;14.09;63.61
71436;SHT31;59251;51.326;12.370;2024-01-30T13:05:15;14.79;62.37
71436;SHT31;59251;51.326;12.370;2024-01-30T13:07:41;14.66;62.39
71436;SHT31;59251;51.326;12.370;2024-01-30T13:10:10;14.83;62.21
71436;SHT31;59251;51.326;12.370;2024-01-30T13:12:37;15.07;61.74
71436;SHT31;59251;51.326;12.370;2024-01-30T13:15:04;14.77;61.36
71436;SHT31;59251;51.326;12.370;2024-01-30T13:17:31;15.05;61.48
71436;SHT31;59251;51.326;12.370;2024-01-30T13:19:58;15.01;61.57
71436;SHT31;59251;51.326;12.370;2024-01-30T13:22:25;15.56;60.26
71436;SHT31;59251;51.326;12.370;2024-01-30T13:24:52;15.38;60.21
71436;SHT31;59251;51.326;12.370;2024-01-30T13:27:20;15.85;59.49
71436;SHT31;59251;51.326;12.370;2024-01-30T13:29:47;15.58;59.30
71436;SHT31;59251;51.326;12.370;2024-01-30T13:32:13;14.67;61.28
71436;SHT31;59251;51.326;12.370;2024-01-30T13:34:41;14.59;61.72
71436;SHT31;59251;51.326;12.370;2024-01-30T13:37:08;14.62;61.66
71436;SHT31;59251;51.326;12.370;2024-01-30T13:39:36;14.45;61.49
71436;SHT31;59251;51.326;12.370;2024-01-30T13:42:03;14.53;62.09
71436;SHT31;59251;51.326;12.370;2024-01-30T13:44:31;14.42;61.69
71436;SHT31;59251;51.326;12.370;2024-01-30T13:46:58;14.64;61.56
71436;SHT31;59251;51.326;12.370;2024-01-30T13:49:25;14.29;61.80
71436;SHT31;59251;51.326;12.370;2024-01-30T13:51:52;14.36;62.42
71436;SHT31;59251;51.326;12.370;2024-01-30T13:54:19;14.53;61.95
71436;SHT31;59251;51.326;12.370;2024-01-30T13:56:46;14.42;62.23
71436;SHT31;59251;51.326;12.370;2024-01-30T13:59:13;14.19;62.84
71436;SHT31;59251;51.326;12.370;2024-01-30T14:01:41;13.74;63.45
71436;SHT31;59251;51.326;12.370;2024-01-30T14:04:08;13.32;64.38
71436;SHT31;59251;51.326;12.370;2024-01-30T14:06:34;13.40;64.67
71436;SHT31;59251;51.326;12.370;2024-01-30T14:09:01;13.27;65.09
71436;SHT31;59251;51.326;12.370;2024-01-30T14:11:29;13.22;65.40
71436;SHT31;59251;51.326;12.370;2024-01-30T14:13:56;13.46;65.02
71436;SHT31;59251;51.326;12.370;2024-01-30T14:16:23;13.16;65.69
71436;SHT31;59251;51.326;12.370;2024-01-30T14:18:52;13.39;65.38
71436;SHT31;59251;51.326;12.370;2024-01-30T14:21:19;13.24;65.71
71436;SHT31;59251;51.326;12.370;2024-01-30T14:23:46;13.09;66.02
71436;SHT31;59251;51.326;12.370;2024-01-30T14:26:14;12.98;66.56
71436;SHT31;59251;51.326;12.370;2024-01-30T14:28:40;12.69;67.06
71436;SHT31;59251;51.326;12.370;2024-01-30T14:31:09;12.91;66.90
71436;SHT31;59251;51.326;12.370;2024-01-30T14:33:35;12.87;67.16
71436;SHT31;59251;51.326;12.370;2024-01-30T14:36:04;12.55;67.77
71436;SHT31;59251;51.326;12.370;2024-01-30T14:38:33;12.67;68.03
71436;SHT31;59251;51.326;12.370;2024-01-30T14:41:00;12.62;68.15
71436;SHT31;59251;51.326;12.370;2024-01-30T14:43:27;12.45;68.81
71436;SHT31;59251;51.326;12.370;2024-01-30T14:45:54;12.51;68.53
71436;SHT31;59251;51.326;12.370;2024-01-30T14:48:20;12.68;68.36
71436;SHT31;59251;51.326;12.370;2024-01-30T14:50:47;12.58;68.66
71436;SHT31;59251;51.326;12.370;2024-01-30T14:53:16;12.54;68.84
71436;SHT31;59251;51.326;12.370;2024-01-30T14:55:43;12.30;69.48
71436;SHT31;59251;51.326;12.370;2024-01-30T14:58:09;12.44;69.15
71436;SHT31;59251;51.326;12.370;2024-01-30T15:00:36;12.45;69.31
71436;SHT31;59251;51.326;12.370;2024-01-30T15:03:04;12.27;69.59
71436;SHT31;59251;51.326;12.370;2024-01-30T15:05:31;12.29;69.60
71436;SHT31;59251;51.326;12.370;2024-01-30T15:07:58;12.23;69.77
71436;SHT31;59251;51.326;12.370;2024-01-30T15:10:26;12.27;69.78
71436;SHT31;59251;51.326;12.370;2024-01-30T15:12:53;12.22;70.10
71436;SHT31;59251;51.326;12.370;2024-01-30T15:15:19;12.16;70.37
71436;SHT31;59251;51.326;12.370;2024-01-30T15:17:46;12.17;70.46
71436;SHT31;59251;51.326;12.370;2024-01-30T15:20:13;12.14;70.58
71436;SHT31;59251;51.326;12.370;2024-01-30T15:22:40;12.05;70.73
71436;SHT31;59251;51.326;12.370;2024-01-30T15:25:08;12.00;71.00